Time;durP1;ratioP1;P1;durP2;ratioP2;P2;SDS_P1;SDS_P2;PMS_P1;PMS_P2;Temp;Humidity;BMP_temperature;BMP_pressure;BME280_temperature;BME280_humidity;BME280_pressure;Samples;Min_cycle;Max_cycle;Signal;HPM_P1;HPM_P2
2021/12/20 00:02:10;;;;;;;10.70;3.70;;;;;;;9.12;70.71;102751.19;5064575;28;20072;-59
2021/12/20 00:04:39;;;;;;;10.18;4.18;;;;;;;9.12;70.28;102733.25;5076961;28;20102;-59
2021/12/20 00:07:07;;;;;;;12.48;4.05;;;;;;;9.09;70.86;102733.56;5067438;28;20076;-59
2021/12/20 00:09:34;;;;;;;10.15;4.13;;;;;;;9.09;70.70;102722.00;5073397;28;20068;-59
2021/12/20 00:12:04;;;;;;;11.68;3.53;;;;;;;9.08;70.40;102731.91;5071151;28;20490;-59
2021/12/20 00:14:32;;;;;;;12.25;3.65;;;;;;;9.07;70.69;102732.91;5072037;28;20076;-59
2021/12/20 00:17:00;;;;;;;13.38;3.83;;;;;;;9.08;69.92;102742.63;5076335;28;20485;-59
2021/12/20 00:19:28;;;;;;;11.68;3.58;;;;;;;9.06;70.10;102730.38;5068777;28;20071;-59
2021/12/20 00:21:55;;;;;;;13.15;3.67;;;;;;;9.06;70.20;102736.59;5075340;28;20084;-58
2021/12/20 00:24:27;;;;;;;8.32;3.03;;;;;;;9.04;70.24;102729.72;5069323;28;20052;-59
2021/12/20 00:26:55;;;;;;;4.60;2.67;;;;;;;9.04;70.04;102735.91;5065085;28;20103;-59
2021/12/20 00:29:24;;;;;;;13.27;3.65;;;;;;;9.02;70.55;102731.72;5067457;28;20083;-59
2021/12/20 00:31:52;;;;;;;8.55;3.30;;;;;;;9.02;70.72;102729.03;5063660;28;20073;-59
2021/12/20 00:34:20;;;;;;;13.57;4.28;;;;;;;9.02;70.32;102729.03;5076220;28;20147;-59
2021/12/20 00:36:56;;;;;;;6.13;2.83;;;;;;;9.02;70.08;102734.41;5066705;28;20086;-59
2021/12/20 00:42:09;;;;;;;11.07;3.55;;;;;;;9.02;70.82;102721.81;5052593;28;20076;-59
2021/12/20 00:44:38;;;;;;;7.68;2.97;;;;;;;9.00;69.95;102721.16;5076054;28;20060;-59
2021/12/20 00:47:06;;;;;;;11.98;3.13;;;;;;;8.98;70.19;102719.66;5062071;28;20048;-58
2021/12/20 00:49:34;;;;;;;10.27;2.85;;;;;;;8.97;70.09;102724.16;5062775;28;20095;-59
2021/12/20 00:52:02;;;;;;;7.88;3.20;;;;;;;8.97;70.13;102715.28;5074535;28;20185;-59
2021/12/20 00:54:29;;;;;;;9.80;3.38;;;;;;;8.96;69.84;102716.28;5065872;28;20521;-59
2021/12/20 00:56:57;;;;;;;6.40;2.90;;;;;;;8.95;69.80;102720.81;5066626;28;20056;-59
2021/12/20 00:59:25;;;;;;;7.35;3.20;;;;;;;8.95;70.04;102722.66;5058071;28;20084;-59
2021/12/20 01:01:54;;;;;;;7.93;2.90;;;;;;;8.93;69.70;102721.97;5069735;28;20084;-59
2021/12/20 01:04:22;;;;;;;7.35;3.40;;;;;;;8.94;70.16;102715.63;5067226;28;20088;-59
2021/12/20 01:06:50;;;;;;;13.07;3.10;;;;;;;8.92;69.59;102709.56;5069897;28;20053;-59
2021/12/20 01:09:18;;;;;;;8.63;2.83;;;;;;;8.91;70.11;102710.59;5077150;28;20078;-59
2021/12/20 01:11:51;;;;;;;12.25;3.28;;;;;;;8.90;69.86;102717.78;5066371;28;20076;-58
2021/12/20 01:14:23;;;;;;;9.13;2.78;;;;;;;8.90;69.69;102714.25;5067506;28;20089;-59
2021/12/20 01:16:53;;;;;;;8.45;3.42;;;;;;;8.90;69.70;102722.31;5066617;28;20045;-59
2021/12/20 01:19:25;;;;;;;9.00;2.92;;;;;;;8.90;69.80;102722.31;5060060;28;20080;-58
2021/12/20 01:21:52;;;;;;;6.72;2.80;;;;;;;8.90;70.27;102730.34;5076777;28;20068;-59
2021/12/20 01:24:20;;;;;;;8.23;2.55;;;;;;;8.89;69.84;102721.47;5077399;28;20080;-59
2021/12/20 01:26:48;;;;;;;7.07;3.42;;;;;;;8.90;70.12;102728.50;5082191;28;20104;-59
2021/12/20 01:29:15;;;;;;;9.90;2.95;;;;;;;8.91;70.29;102719.47;5072110;28;20048;-59
2021/12/20 01:31:43;;;;;;;8.73;3.00;;;;;;;8.90;70.39;102719.63;5084114;28;20639;-59
2021/12/20 01:34:11;;;;;;;12.77;2.45;;;;;;;8.89;69.82;102713.44;5074090;28;20076;-59
2021/12/20 01:36:40;;;;;;;10.85;2.55;;;;;;;8.89;69.75;102726.84;5066691;28;20045;-59
2021/12/20 01:39:08;;;;;;;9.77;3.03;;;;;;;8.90;70.06;102716.94;5072190;28;20052;-59
2021/12/20 01:41:39;;;;;;;9.00;3.05;;;;;;;8.88;69.76;102722.47;5073321;28;20079;-59
2021/12/20 01:44:07;;;;;;;10.25;3.42;;;;;;;8.89;70.31;102709.91;5070794;28;20045;-59
2021/12/20 01:46:35;;;;;;;12.38;2.80;;;;;;;8.83;69.51;102706.03;5073099;28;20044;-59
2021/12/20 01:49:05;;;;;;;9.70;2.90;;;;;;;8.87;69.58;102715.44;5068082;28;20068;-59
2021/12/20 01:51:47;;;;;;;12.45;3.28;;;;;;;8.88;69.63;102708.22;5073775;28;20075;-59
2021/12/20 01:54:16;;;;;;;10.38;2.20;;;;;;;8.88;69.41;102710.91;5065192;28;20083;-59
2021/12/20 01:56:45;;;;;;;9.95;2.95;;;;;;;8.89;69.00;102712.59;5070307;28;20076;-58
2021/12/20 01:59:13;;;;;;;16.88;2.88;;;;;;;8.87;68.92;102712.75;5069882;28;20099;-59
2021/12/20 02:01:43;;;;;;;10.07;3.25;;;;;;;8.88;68.63;102711.75;5071539;28;20109;-59
2021/12/20 02:04:12;;;;;;;14.45;2.85;;;;;;;8.85;68.83;102708.56;5073154;28;20059;-59
2021/12/20 02:06:45;;;;;;;12.38;2.60;;;;;;;8.87;69.17;102712.75;5069926;28;20076;-58
2021/12/20 02:09:16;;;;;;;13.60;2.55;;;;;;;8.87;68.28;102703.88;5076482;28;20467;-59
2021/12/20 02:11:49;;;;;;;21.88;3.42;;;;;;;8.87;68.30;102706.56;5073137;28;20059;-59
2021/12/20 02:14:20;;;;;;;15.20;4.00;;;;;;;8.86;68.00;102703.03;5078110;28;20067;-59
2021/12/20 02:16:48;;;;;;;11.43;3.30;;;;;;;8.86;68.59;102702.19;5066864;28;20087;-59
2021/12/20 02:19:17;;;;;;;8.88;1.90;;;;;;;8.87;68.42;102703.88;5067209;28;20073;-59
2021/12/20 02:21:46;;;;;;;15.35;4.97;;;;;;;8.88;68.86;102703.72;5069529;28;20087;-59
2021/12/20 02:24:14;;;;;;;11.18;2.47;;;;;;;8.88;67.74;102709.06;5076585;28;20175;-59
2021/12/20 02:26:43;;;;;;;11.30;3.42;;;;;;;8.88;68.17;102706.38;5067613;28;20048;-59
2021/12/20 02:29:11;;;;;;;13.13;2.92;;;;;;;8.89;67.84;102701.88;5072156;28;20063;-59
2021/12/20 02:37:27;;;;;;;12.95;3.25;;;;;;;8.88;68.03;102700.19;5070135;28;20156;-59
2021/12/20 02:39:56;;;;;;;10.10;3.00;;;;;;;8.87;68.11;102698.50;5062981;28;20049;-59
2021/12/20 02:42:29;;;;;;;22.00;3.58;;;;;;;8.88;67.72;102700.19;5068387;28;20115;-59
2021/12/20 02:45:09;;;;;;;11.02;2.50;;;;;;;8.86;67.66;102697.66;5069515;28;20063;-59
2021/12/20 02:47:38;;;;;;;13.23;3.00;;;;;;;8.86;67.15;102697.66;5071476;28;20056;-59
2021/12/20 02:50:07;;;;;;;14.00;4.50;;;;;;;8.82;67.25;102694.47;5083270;28;20425;-59
2021/12/20 02:52:36;;;;;;;18.50;2.85;;;;;;;8.82;67.54;102705.19;5071949;28;20064;-59
2021/12/20 02:55:06;;;;;;;12.02;3.70;;;;;;;8.84;67.51;102698.84;5073612;28;20064;-59
2021/12/20 02:57:34;;;;;;;12.68;2.92;;;;;;;8.80;67.25;102699.16;5069607;28;20045;-59
2021/12/20 03:00:02;;;;;;;10.32;2.78;;;;;;;8.81;66.73;102700.00;5077485;28;20074;-59
2021/12/20 03:02:30;;;;;;;19.50;2.40;;;;;;;8.80;66.96;102699.16;5083657;28;20088;-59
2021/12/20 03:04:58;;;;;;;16.67;4.10;;;;;;;8.79;67.44;102699.34;5067545;28;20076;-59
2021/12/20 03:07:27;;;;;;;13.15;2.40;;;;;;;8.79;66.73;102702.00;5070179;28;20076;-58
2021/12/20 03:10:02;;;;;;;11.60;3.22;;;;;;;8.78;67.26;102701.19;5075403;28;20095;-58
2021/12/20 03:12:32;;;;;;;16.88;2.95;;;;;;;8.79;67.83;102704.69;5071140;28;20052;-58
2021/12/20 03:15:08;;;;;;;10.45;3.17;;;;;;;8.79;67.39;102710.91;5070073;28;20525;-59
2021/12/20 03:17:36;;;;;;;16.87;3.20;;;;;;;8.78;67.87;102695.81;5052722;28;20056;-59
2021/12/20 03:20:04;;;;;;;13.73;2.67;;;;;;;8.79;67.21;102691.28;5068740;28;20295;-59
2021/12/20 03:22:32;;;;;;;11.68;2.53;;;;;;;8.77;66.40;102690.63;5066183;28;20056;-59
2021/12/20 03:25:01;;;;;;;13.32;2.45;;;;;;;8.75;66.41;102688.09;5071131;28;20045;-59
2021/12/20 03:27:29;;;;;;;13.68;2.53;;;;;;;8.76;66.57;102688.94;5065952;28;20079;-59
2021/12/20 03:29:57;;;;;;;9.85;2.75;;;;;;;8.74;66.03;102689.09;5072824;28;20052;-59
2021/12/20 03:32:25;;;;;;;12.18;2.50;;;;;;;8.74;66.63;102694.47;5065147;28;20044;-58
2021/12/20 03:34:53;;;;;;;10.20;3.38;;;;;;;8.74;65.90;102699.81;5070174;28;20048;-59
2021/12/20 03:37:20;;;;;;;10.63;3.10;;;;;;;8.73;66.32;102690.09;5066111;28;20049;-59
2021/12/20 03:39:48;;;;;;;17.23;3.80;;;;;;;8.71;66.28;102697.47;5069185;28;20079;-59
2021/12/20 03:42:18;;;;;;;14.73;2.92;;;;;;;8.72;66.80;102699.16;5071423;28;20080;-58
2021/12/20 03:44:46;;;;;;;13.00;3.10;;;;;;;8.73;66.57;102702.66;5064820;28;20049;-59
2021/12/20 03:47:14;;;;;;;15.38;3.58;;;;;;;8.71;66.54;102700.16;5071631;28;20061;-58
2021/12/20 03:49:43;;;;;;;12.13;2.45;;;;;;;8.72;66.81;102698.31;5060378;28;20052;-59
2021/12/20 03:52:11;;;;;;;13.00;2.47;;;;;;;8.73;66.40;102703.50;5067803;28;20049;-59
2021/12/20 03:54:39;;;;;;;12.52;2.97;;;;;;;8.71;65.97;102692.13;5070886;28;20055;-59
2021/12/20 03:57:08;;;;;;;12.48;3.03;;;;;;;8.72;66.89;102693.78;5079858;28;20508;-59
2021/12/20 03:59:37;;;;;;;10.45;3.67;;;;;;;8.71;66.82;102697.47;5077681;28;20076;-59
2021/12/20 04:02:06;;;;;;;13.02;2.70;;;;;;;8.72;66.54;102696.47;5077667;28;20052;-59
2021/12/20 04:04:34;;;;;;;11.75;3.03;;;;;;;8.72;66.25;102698.31;5077444;28;20053;-59
2021/12/20 04:07:01;;;;;;;15.88;3.38;;;;;;;8.72;66.19;102701.00;5064444;28;20136;-59
2021/12/20 04:09:29;;;;;;;18.15;3.38;;;;;;;8.71;66.60;102699.31;5064711;28;20082;-59
2021/12/20 04:11:57;;;;;;;19.83;3.20;;;;;;;8.70;66.13;102690.44;5057285;28;20048;-59
2021/12/20 04:14:25;;;;;;;17.63;4.15;;;;;;;8.71;65.92;102685.91;5077522;28;20095;-58
2021/12/20 04:16:54;;;;;;;11.85;2.42;;;;;;;8.70;66.10;102690.44;5069685;28;20095;-58
2021/12/20 04:19:21;;;;;;;19.40;4.97;;;;;;;8.71;66.47;102691.28;5067914;28;20135;-59
2021/12/20 04:21:49;;;;;;;12.98;2.92;;;;;;;8.72;65.99;102693.78;5063483;28;20083;-59
2021/12/20 04:24:17;;;;;;;16.30;3.15;;;;;;;8.72;66.46;102696.47;5063368;28;20055;-59
2021/12/20 04:26:45;;;;;;;12.70;2.95;;;;;;;8.72;66.45;102690.28;5063257;28;20080;-59
2021/12/20 04:29:12;;;;;;;22.85;5.32;;;;;;;8.72;66.38;102695.63;5062654;28;20064;-59
2021/12/20 04:31:40;;;;;;;12.13;2.47;;;;;;;8.69;66.27;102699.47;5064412;28;20053;-58
2021/12/20 04:34:09;;;;;;;14.35;3.28;;;;;;;8.69;65.94;102698.63;5064139;28;20087;-59
2021/12/20 04:36:37;;;;;;;14.40;3.50;;;;;;;8.68;66.16;102687.09;5070798;28;20049;-58
2021/12/20 04:39:07;;;;;;;16.33;3.53;;;;;;;8.69;65.62;102690.59;5080238;28;20052;-59
2021/12/20 04:41:35;;;;;;;18.02;2.95;;;;;;;8.70;66.01;102689.59;5075865;28;21004;-59
2021/12/20 04:44:03;;;;;;;15.55;3.00;;;;;;;8.68;66.38;102689.75;5069278;28;20091;-59
2021/12/20 04:46:31;;;;;;;14.82;3.83;;;;;;;8.69;66.21;102690.59;5071769;28;20088;-59
2021/12/20 04:48:59;;;;;;;15.13;3.28;;;;;;;8.69;65.95;102690.59;5051324;28;20049;-59
2021/12/20 04:51:29;;;;;;;16.75;3.90;;;;;;;8.67;66.30;102695.28;5069713;28;20084;-59
2021/12/20 04:53:57;;;;;;;13.38;3.13;;;;;;;8.67;65.83;102698.81;5067118;28;20041;-59
2021/12/20 04:56:24;;;;;;;11.70;2.95;;;;;;;8.61;65.60;102679.88;5072131;28;20045;-59
2021/12/20 04:58:52;;;;;;;13.45;3.58;;;;;;;8.66;65.55;102699.00;5062395;28;20037;-59
2021/12/20 05:01:20;;;;;;;13.93;4.07;;;;;;;8.65;66.03;102690.13;5071731;28;20076;-59
2021/12/20 05:03:48;;;;;;;21.50;3.45;;;;;;;8.64;65.18;102699.16;5076585;28;20052;-59
2021/12/20 05:06:16;;;;;;;15.40;3.05;;;;;;;8.65;65.59;102694.63;5066532;28;20133;-59
2021/12/20 05:08:49;;;;;;;12.95;4.15;;;;;;;8.63;65.33;102694.81;5062562;28;20060;-58
2021/12/20 05:11:19;;;;;;;15.45;2.92;;;;;;;8.64;66.18;102690.28;5063004;28;20056;-59
2021/12/20 05:13:47;;;;;;;18.48;3.03;;;;;;;8.61;65.84;102693.28;5061112;28;20079;-59
2021/12/20 05:16:15;;;;;;;12.55;3.72;;;;;;;8.61;65.65;102696.81;5066775;28;20056;-59
2021/12/20 05:18:43;;;;;;;12.75;2.80;;;;;;;8.62;65.64;102698.50;5076773;28;20076;-58
2021/12/20 05:21:11;;;;;;;15.70;3.50;;;;;;;8.54;65.44;102689.59;5072942;28;20119;-59
2021/12/20 05:23:38;;;;;;;20.50;3.25;;;;;;;8.62;65.32;102706.53;5069355;28;20114;-59
2021/12/20 05:26:07;;;;;;;13.98;3.30;;;;;;;8.61;65.45;102701.34;5064248;28;20051;-59
2021/12/20 05:28:35;;;;;;;15.20;2.90;;;;;;;8.62;64.86;102692.28;5066091;28;20076;-59
2021/12/20 05:31:05;;;;;;;12.75;2.70;;;;;;;8.61;64.90;102693.28;5064953;28;20496;-59
2021/12/20 05:33:34;;;;;;;16.38;3.15;;;;;;;8.59;65.67;102697.97;5070936;28;20084;-59
2021/12/20 05:36:02;;;;;;;12.45;3.05;;;;;;;8.61;65.63;102704.00;5073292;28;20475;-59
2021/12/20 05:38:47;;;;;;;11.32;2.40;;;;;;;8.60;65.28;102697.81;5070373;28;20064;-58
2021/12/20 05:41:16;;;;;;;14.05;3.47;;;;;;;8.59;65.69;102698.81;5077120;28;20080;-59
2021/12/20 05:43:45;;;;;;;13.65;3.67;;;;;;;8.58;64.95;102691.78;5079213;28;20084;-59
2021/12/20 05:46:12;;;;;;;21.90;4.15;;;;;;;8.57;64.57;102691.94;5072370;28;20067;-59
2021/12/20 05:48:40;;;;;;;15.27;2.88;;;;;;;8.57;64.57;102710.69;5058126;28;20088;-59
2021/12/20 05:51:08;;;;;;;11.60;3.05;;;;;;;8.55;64.36;102700.16;5070016;28;20136;-59
2021/12/20 05:53:36;;;;;;;18.13;3.65;;;;;;;8.55;64.85;102708.19;5063087;28;20506;-59
2021/12/20 05:56:05;;;;;;;10.88;3.10;;;;;;;8.54;65.55;102697.63;5067231;28;20080;-59
2021/12/20 05:58:34;;;;;;;16.65;2.60;;;;;;;8.55;65.13;102699.31;5064882;28;20040;-59
2021/12/20 06:01:01;;;;;;;14.80;3.90;;;;;;;8.55;65.86;102708.19;5066171;28;20076;-59
2021/12/20 06:03:29;;;;;;;14.98;4.78;;;;;;;8.55;65.52;102705.50;5065129;28;20597;-59
2021/12/20 06:05:58;;;;;;;19.13;3.67;;;;;;;8.53;65.43;102707.50;5063789;28;20049;-60
2021/12/20 06:08:26;;;;;;;12.35;2.78;;;;;;;8.54;65.29;102698.47;5072704;28;20072;-59
2021/12/20 06:10:54;;;;;;;13.95;3.00;;;;;;;8.53;64.24;102704.81;5075113;28;20076;-59
2021/12/20 06:13:21;;;;;;;13.18;3.10;;;;;;;8.55;64.13;102707.34;5070701;28;20080;-59
2021/12/20 06:15:51;;;;;;;17.23;3.08;;;;;;;8.56;63.84;102699.13;5077692;28;20402;-59
2021/12/20 06:18:18;;;;;;;15.35;3.03;;;;;;;8.56;64.08;102717.06;5067475;28;20057;-59
2021/12/20 06:20:46;;;;;;;13.13;3.25;;;;;;;8.56;64.45;102714.38;5065235;28;20045;-59
2021/12/20 06:23:14;;;;;;;21.63;4.82;;;;;;;8.56;64.09;102719.75;4365565;28;10000657;-58
2021/12/20 06:25:42;;;;;;;15.55;3.10;;;;;;;8.55;63.31;102718.06;5060132;28;20049;-59
2021/12/20 06:28:10;;;;;;;17.00;3.60;;;;;;;8.54;63.53;102716.38;5065438;28;20049;-59
2021/12/20 06:30:38;;;;;;;14.32;3.47;;;;;;;8.53;63.63;102720.06;5064907;28;20076;-59
2021/12/20 06:33:07;;;;;;;17.58;3.67;;;;;;;8.54;63.92;102713.72;5067722;28;20083;-61
2021/12/20 06:35:35;;;;;;;15.15;3.35;;;;;;;8.51;64.12;102714.03;5081720;28;20048;-60
2021/12/20 06:38:05;;;;;;;20.67;4.47;;;;;;;8.52;63.58;102724.59;5068260;28;20522;-60
2021/12/20 06:40:34;;;;;;;15.82;3.25;;;;;;;8.50;63.60;102718.56;5061433;28;20053;-60
2021/12/20 06:43:03;;;;;;;16.88;3.05;;;;;;;8.44;63.28;102714.69;5063176;28;20053;-62
2021/12/20 06:45:33;;;;;;;13.85;2.90;;;;;;;8.48;64.17;102729.44;5067320;28;20056;-61
2021/12/20 06:48:00;;;;;;;21.50;3.85;;;;;;;8.47;63.79;102732.28;5057811;28;20060;-62
2021/12/20 06:50:30;;;;;;;15.93;3.22;;;;;;;8.47;63.49;102730.44;5066463;28;20065;-62
2021/12/20 06:52:58;;;;;;;16.38;3.38;;;;;;;8.47;63.41;102730.44;5073430;28;20083;-61
2021/12/20 06:55:26;;;;;;;21.20;3.67;;;;;;;8.47;63.30;102741.16;5069209;28;20048;-61
2021/12/20 06:57:54;;;;;;;24.48;5.40;;;;;;;8.46;62.63;102733.28;5073905;28;20160;-62
2021/12/20 07:00:23;;;;;;;17.13;3.78;;;;;;;8.46;63.88;102730.59;5074899;28;20084;-62
2021/12/20 07:02:51;;;;;;;22.13;4.43;;;;;;;8.43;63.60;102737.13;5070572;28;20071;-62
2021/12/20 07:05:22;;;;;;;18.65;3.85;;;;;;;8.40;62.22;102737.44;5071198;28;20086;-62
2021/12/20 07:07:52;;;;;;;19.27;4.53;;;;;;;8.42;63.14;102735.44;5069869;28;20084;-62
2021/12/20 07:10:20;;;;;;;26.35;4.53;;;;;;;8.42;63.16;102739.94;5072830;28;20109;-62
2021/12/20 07:12:48;;;;;;;15.65;3.85;;;;;;;8.42;62.21;102743.47;5063790;28;20079;-62
2021/12/20 07:15:16;;;;;;;16.73;3.28;;;;;;;8.36;63.48;102729.88;5060895;28;20074;-62
2021/12/20 07:17:44;;;;;;;13.43;3.80;;;;;;;8.42;63.39;102727.41;5064839;28;20133;-61
2021/12/20 07:20:12;;;;;;;22.35;4.40;;;;;;;8.45;63.33;102742.31;5060359;28;20100;-62
2021/12/20 07:22:40;;;;;;;17.80;3.47;;;;;;;8.42;62.81;102743.47;5071464;28;20064;-62
2021/12/20 07:25:09;;;;;;;9.20;2.90;;;;;;;8.42;62.78;102748.84;5073255;28;20040;-62
2021/12/20 07:27:38;;;;;;;14.50;4.40;;;;;;;8.42;62.95;102739.94;5071308;28;20080;-61
2021/12/20 07:30:07;;;;;;;14.90;4.25;;;;;;;8.41;62.85;102741.78;5048989;28;20132;-60
2021/12/20 07:32:35;;;;;;;14.90;3.00;;;;;;;8.42;62.18;102739.94;5057821;28;20056;-62
2021/12/20 07:35:03;;;;;;;18.33;3.75;;;;;;;8.42;62.48;102746.16;5061999;28;20055;-62
2021/12/20 07:37:31;;;;;;;17.50;3.97;;;;;;;8.41;61.82;102743.63;5061368;28;20155;-62
2021/12/20 07:39:59;;;;;;;17.55;3.55;;;;;;;8.41;62.52;102749.84;5058647;28;20134;-62
2021/12/20 07:42:28;;;;;;;9.13;2.83;;;;;;;8.41;62.07;102741.78;5060366;28;20107;-61
2021/12/20 07:44:57;;;;;;;18.73;3.63;;;;;;;8.42;61.55;102745.31;5058034;28;20861;-61
2021/12/20 07:47:46;;;;;;;15.27;3.03;;;;;;;8.55;61.36;102744.84;5059243;28;20544;-60
2021/12/20 07:50:14;;;;;;;15.10;4.43;;;;;;;8.63;60.00;102744.88;5057891;28;20061;-61
2021/12/20 07:52:42;;;;;;;16.90;3.15;;;;;;;8.79;60.60;102748.44;5060582;28;20079;-62
2021/12/20 07:55:11;;;;;;;13.23;4.47;;;;;;;8.96;59.15;102743.09;5058446;28;20147;-58
2021/12/20 07:57:40;;;;;;;10.60;3.58;;;;;;;9.12;60.08;102751.19;5056197;28;20049;-58
2021/12/20 08:00:11;;;;;;;12.13;3.60;;;;;;;9.27;59.00;102748.69;5060462;28;20114;-58
2021/12/20 08:02:39;;;;;;;15.38;2.95;;;;;;;9.45;59.09;102750.19;5063313;28;20052;-58
2021/12/20 08:05:09;;;;;;;13.10;2.80;;;;;;;9.63;58.68;102751.88;5064491;28;20072;-58
2021/12/20 08:07:37;;;;;;;12.20;2.92;;;;;;;9.73;58.05;102749.84;5066259;28;20064;-59
2021/12/20 08:10:06;;;;;;;9.07;2.50;;;;;;;9.84;57.03;102748.66;5064108;28;20045;-59
2021/12/20 08:12:34;;;;;;;13.43;2.60;;;;;;;9.90;57.42;102753.34;5061425;28;20049;-60
2021/12/20 08:15:04;;;;;;;14.18;3.08;;;;;;;10.01;56.91;102756.50;5070130;28;20053;-58
2021/12/20 08:17:32;;;;;;;14.10;3.22;;;;;;;10.06;56.87;102756.00;5069492;28;20044;-59
2021/12/20 08:20:00;;;;;;;11.73;2.33;;;;;;;10.06;57.15;102756.84;5062501;28;20040;-58
2021/12/20 08:22:28;;;;;;;14.00;2.97;;;;;;;10.08;56.24;102756.66;5069293;28;20193;-59
2021/12/20 08:24:55;;;;;;;18.17;3.47;;;;;;;10.10;56.72;102754.66;5061520;28;20045;-58
2021/12/20 08:27:23;;;;;;;12.23;3.00;;;;;;;10.01;56.12;102759.19;5062818;28;20076;-58
2021/12/20 08:29:51;;;;;;;13.98;3.10;;;;;;;9.89;56.87;102762.41;5060881;28;20052;-59
2021/12/20 08:32:21;;;;;;;8.57;2.28;;;;;;;9.73;57.01;102753.38;5068254;28;20078;-59
2021/12/20 08:34:52;;;;;;;11.52;2.88;;;;;;;9.57;57.36;102761.44;5062427;28;20131;-58
2021/12/20 08:37:20;;;;;;;12.05;2.88;;;;;;;9.44;58.02;102767.31;5066882;28;20049;-58
2021/12/20 08:39:48;;;;;;;13.23;2.65;;;;;;;9.34;58.59;102768.47;5064925;28;20505;-59
2021/12/20 08:42:16;;;;;;;15.68;2.83;;;;;;;9.24;58.82;102767.78;5059050;28;20099;-58
2021/12/20 08:44:43;;;;;;;16.63;3.30;;;;;;;9.11;58.98;102763.75;5065347;28;20049;-59
2021/12/20 08:47:11;;;;;;;22.27;3.60;;;;;;;9.08;58.56;102761.41;5062674;28;20048;-59
2021/12/20 08:49:41;;;;;;;17.05;2.90;;;;;;;9.03;59.94;102762.91;5064740;28;20144;-59
2021/12/20 08:52:09;;;;;;;9.43;2.42;;;;;;;8.99;59.87;102761.53;5064105;28;20049;-59
2021/12/20 08:54:37;;;;;;;12.27;2.95;;;;;;;8.95;59.71;102763.72;5064978;28;20083;-59
2021/12/20 08:57:07;;;;;;;10.73;2.38;;;;;;;8.93;59.80;102767.56;5066498;28;20306;-59
2021/12/20 08:59:35;;;;;;;10.30;2.33;;;;;;;8.88;59.34;102768.06;5064295;28;20056;-58
2021/12/20 09:02:06;;;;;;;11.02;2.42;;;;;;;8.85;59.85;102773.75;5064162;28;20041;-58
2021/12/20 09:04:34;;;;;;;13.60;2.40;;;;;;;8.81;58.59;102765.19;5067617;28;20041;-59
2021/12/20 09:07:05;;;;;;;14.32;3.55;;;;;;;8.78;60.26;102772.72;5070313;28;20119;-58
2021/12/20 09:09:37;;;;;;;15.60;3.42;;;;;;;8.75;59.99;102775.72;5068932;28;20049;-59
2021/12/20 09:12:07;;;;;;;6.18;2.53;;;;;;;8.73;59.26;102769.69;5065080;28;20041;-58
2021/12/20 09:14:34;;;;;;;8.02;2.63;;;;;;;8.70;59.83;102776.22;4366933;28;10000664;-59
2021/12/20 09:17:04;;;;;;;12.88;3.05;;;;;;;8.67;59.04;102783.72;5060832;28;20568;-59
2021/12/20 09:19:34;;;;;;;12.73;2.70;;;;;;;8.62;58.71;102780.72;5066183;28;20071;-58
2021/12/20 09:22:05;;;;;;;13.00;2.60;;;;;;;8.61;59.19;102777.22;5060042;28;20037;-59
2021/12/20 09:24:34;;;;;;;12.90;2.92;;;;;;;8.61;60.03;102782.56;5057663;28;20056;-58
2021/12/20 09:27:02;;;;;;;13.73;2.88;;;;;;;8.60;59.34;102778.22;5064318;28;20049;-58
2021/12/20 09:29:30;;;;;;;13.70;3.40;;;;;;;8.60;59.82;102780.06;5058416;28;20049;-59
2021/12/20 09:31:58;;;;;;;10.40;2.75;;;;;;;8.59;60.88;102791.78;5059122;28;20067;-59
2021/12/20 09:34:26;;;;;;;13.55;2.75;;;;;;;8.58;60.05;102790.94;5063743;28;20186;-59
2021/12/20 09:36:55;;;;;;;14.50;2.60;;;;;;;8.56;60.20;102782.22;5059432;28;20849;-62
2021/12/20 09:39:24;;;;;;;11.40;2.70;;;;;;;8.58;60.71;102784.72;5054271;28;20118;-59
2021/12/20 09:42:00;;;;;;;14.75;3.67;;;;;;;8.56;60.31;102786.75;5060050;28;20053;-59
2021/12/20 09:44:28;;;;;;;14.30;3.47;;;;;;;8.58;59.91;102792.78;5053732;28;20057;-59
2021/12/20 09:47:00;;;;;;;10.52;2.70;;;;;;;8.70;59.80;102797.66;5062572;28;20087;-59
2021/12/20 09:49:30;;;;;;;12.07;2.55;;;;;;;8.85;59.21;102802.41;5061991;28;20052;-59
2021/12/20 09:51:58;;;;;;;10.32;2.70;;;;;;;8.97;59.13;102801.09;5061817;28;20061;-58
2021/12/20 09:54:29;;;;;;;16.42;3.92;;;;;;;9.12;58.09;102810.19;5071476;28;20052;-59
2021/12/20 09:56:59;;;;;;;13.75;3.13;;;;;;;9.30;58.51;102797.47;5063521;28;20110;-59
2021/12/20 09:59:29;;;;;;;12.05;2.58;;;;;;;9.47;57.66;102801.03;5072018;28;20079;-59
2021/12/20 10:01:58;;;;;;;13.88;3.63;;;;;;;9.62;56.87;102806.56;5063110;28;20052;-59
2021/12/20 10:04:27;;;;;;;12.13;2.50;;;;;;;9.75;57.10;102793.47;5067360;28;20053;-59
2021/12/20 10:06:58;;;;;;;10.73;2.65;;;;;;;9.78;56.81;102779.72;5063879;28;20056;-59
2021/12/20 10:09:32;;;;;;;9.52;2.75;;;;;;;9.90;55.51;102794.47;5057435;28;20053;-59
2021/12/20 10:12:14;;;;;;;15.73;3.75;;;;;;;9.86;55.11;102795.81;5063647;28;20106;-59
2021/12/20 10:14:58;;;;;;;12.13;3.15;;;;;;;9.75;56.64;102801.53;5066171;28;20053;-59
2021/12/20 10:17:27;;;;;;;14.40;2.78;;;;;;;9.58;56.41;102800.69;5057729;28;20304;-59
2021/12/20 10:19:55;;;;;;;10.52;2.90;;;;;;;9.46;57.26;102805.56;5061438;28;20053;-59
2021/12/20 10:22:25;;;;;;;15.90;3.53;;;;;;;9.37;57.47;102811.91;5065764;28;20117;-59
2021/12/20 10:24:57;;;;;;;12.10;2.28;;;;;;;9.28;58.53;102807.53;5066288;28;20104;-59
2021/12/20 10:27:30;;;;;;;12.73;2.85;;;;;;;9.20;57.33;102804.84;5061305;28;20257;-58
2021/12/20 10:29:58;;;;;;;15.85;3.70;;;;;;;9.13;57.81;102806.50;5065928;28;20057;-57
2021/12/20 10:32:39;;;;;;;11.57;2.42;;;;;;;9.09;58.14;102805.16;5068313;28;20443;-59
2021/12/20 10:35:31;;;;;;;11.68;2.88;;;;;;;9.02;58.05;102796.91;5071172;28;20052;-60
2021/12/20 10:38:00;;;;;;;11.27;2.58;;;;;;;8.99;58.15;102801.78;5066256;28;20064;-59
2021/12/20 10:40:31;;;;;;;13.80;2.97;;;;;;;8.93;58.67;102800.59;5065364;28;20049;-59
2021/12/20 10:43:00;;;;;;;10.85;2.38;;;;;;;8.89;58.98;102798.38;5068614;28;20106;-58
2021/12/20 10:45:28;;;;;;;12.93;2.28;;;;;;;8.85;58.54;102802.41;5070044;28;20440;-61
2021/12/20 10:47:56;;;;;;;13.10;3.20;;;;;;;8.80;58.56;102805.56;5068064;28;20041;-59
2021/12/20 10:50:27;;;;;;;11.13;2.42;;;;;;;8.78;58.72;102799.53;5064837;28;20045;-62
2021/12/20 10:53:12;;;;;;;13.43;3.05;;;;;;;8.74;59.24;102795.50;5064015;28;20041;-59
2021/12/20 10:55:43;;;;;;;17.30;3.30;;;;;;;8.85;58.77;102797.88;5055457;28;20061;-60
2021/12/20 10:58:31;;;;;;;18.40;2.75;;;;;;;9.03;58.86;102801.28;5062954;28;20045;-60
2021/12/20 11:01:17;;;;;;;16.60;3.20;;;;;;;9.25;57.86;102794.47;5071665;28;20059;-60
2021/12/20 11:03:56;;;;;;;13.57;3.08;;;;;;;9.45;57.42;102803.88;5066950;28;20056;-60
2021/12/20 11:06:39;;;;;;;14.48;3.63;;;;;;;9.57;56.51;102790.13;5066163;28;20075;-60
2021/12/20 11:09:15;;;;;;;15.90;2.97;;;;;;;9.67;56.84;102794.31;5062671;28;20057;-60
2021/12/20 11:11:50;;;;;;;12.10;2.88;;;;;;;9.72;56.44;102789.28;5062628;28;20071;-60
2021/12/20 11:14:19;;;;;;;16.83;4.53;;;;;;;9.66;56.77;102798.00;5062681;28;20052;-59
2021/12/20 11:16:49;;;;;;;12.18;2.75;;;;;;;9.57;57.35;102793.66;5061084;28;20126;-60
2021/12/20 11:19:22;;;;;;;15.38;3.58;;;;;;;9.45;57.77;102786.94;5076690;28;20490;-59
2021/12/20 11:22:03;;;;;;;16.25;3.15;;;;;;;9.35;58.48;102789.78;4718060;28;9999743;-60
2021/12/20 11:24:33;;;;;;;11.63;2.80;;;;;;;9.26;58.55;102785.41;5067279;28;20055;-59
2021/12/20 11:27:05;;;;;;;11.23;3.13;;;;;;;9.19;58.67;102778.19;5069948;28;20048;-59
2021/12/20 11:29:34;;;;;;;24.58;3.80;;;;;;;9.16;59.71;102791.94;5060388;28;20057;-60
2021/12/20 11:32:03;;;;;;;14.10;3.67;;;;;;;9.11;60.08;102785.22;5070387;28;20202;-60
2021/12/20 11:34:31;;;;;;;12.50;3.08;;;;;;;9.05;59.36;102796.59;5067629;28;20056;-60
2021/12/20 11:36:59;;;;;;;11.25;4.10;;;;;;;9.04;59.97;102791.41;5065757;28;20057;-59
2021/12/20 11:39:27;;;;;;;14.63;3.65;;;;;;;9.01;59.83;102791.72;5064853;28;20056;-59
2021/12/20 11:41:55;;;;;;;13.65;2.97;;;;;;;8.97;60.57;102790.38;5064011;28;20045;-59
2021/12/20 11:44:28;;;;;;;16.27;4.38;;;;;;;8.92;60.80;102788.19;5061598;28;20073;-59
2021/12/20 11:47:07;;;;;;;15.18;3.63;;;;;;;8.90;60.90;102794.72;5068073;28;20049;-59